sensor_id;sensor_type;location;lat;lon;timestamp;temperature;humidity
27004;DHT22;14546;47.590;19.022;2023-05-29T00:02:07;13.60;68.50
27004;DHT22;14546;47.590;19.022;2023-05-29T00:04:33;13.70;68.60
27004;DHT22;14546;47.590;19.022;2023-05-29T00:06:59;13.70;68.80
27004;DHT22;14546;47.590;19.022;2023-05-29T00:09:24;13.60;68.90
27004;DHT22;14546;47.590;19.022;2023-05-29T00:11:50;13.60;69.10
27004;DHT22;14546;47.590;19.022;2023-05-29T00:14:18;13.60;69.20
27004;DHT22;14546;47.590;19.022;2023-05-29T00:16:45;13.50;69.40
27004;DHT22;14546;47.590;19.022;2023-05-29T00:19:13;13.50;69.40
27004;DHT22;14546;47.590;19.022;2023-05-29T00:21:39;13.50;69.50
27004;DHT22;14546;47.590;19.022;2023-05-29T00:24:06;13.60;69.60
27004;DHT22;14546;47.590;19.022;2023-05-29T00:26:31;13.50;69.60
27004;DHT22;14546;47.590;19.022;2023-05-29T00:28:57;13.50;69.70
27004;DHT22;14546;47.590;19.022;2023-05-29T00:31:22;13.50;69.70
27004;DHT22;14546;47.590;19.022;2023-05-29T00:33:49;13.50;69.70
27004;DHT22;14546;47.590;19.022;2023-05-29T00:36:15;13.50;69.70
27004;DHT22;14546;47.590;19.022;2023-05-29T00:38:42;13.50;69.70
27004;DHT22;14546;47.590;19.022;2023-05-29T00:41:13;13.50;69.70
27004;DHT22;14546;47.590;19.022;2023-05-29T00:43:39;13.50;69.80
27004;DHT22;14546;47.590;19.022;2023-05-29T00:46:04;13.50;69.90
27004;DHT22;14546;47.590;19.022;2023-05-29T00:48:30;13.60;70.10
27004;DHT22;14546;47.590;19.022;2023-05-29T00:50:56;13.50;70.10
27004;DHT22;14546;47.590;19.022;2023-05-29T00:53:23;13.50;70.20
27004;DHT22;14546;47.590;19.022;2023-05-29T00:55:49;13.50;70.30
27004;DHT22;14546;47.590;19.022;2023-05-29T00:58:15;13.50;70.30
27004;DHT22;14546;47.590;19.022;2023-05-29T01:00:41;13.60;71.40
27004;DHT22;14546;47.590;19.022;2023-05-29T01:03:08;13.90;72.40
27004;DHT22;14546;47.590;19.022;2023-05-29T01:05:35;14.00;71.10
27004;DHT22;14546;47.590;19.022;2023-05-29T01:08:03;14.00;70.40
27004;DHT22;14546;47.590;19.022;2023-05-29T01:10:29;14.00;70.30
27004;DHT22;14546;47.590;19.022;2023-05-29T01:13:13;13.90;70.40
27004;DHT22;14546;47.590;19.022;2023-05-29T01:15:52;13.80;70.70
27004;DHT22;14546;47.590;19.022;2023-05-29T01:19:26;13.70;70.60
27004;DHT22;14546;47.590;19.022;2023-05-29T01:26:58;13.50;70.80
27004;DHT22;14546;47.590;19.022;2023-05-29T01:29:28;13.40;71.10
27004;DHT22;14546;47.590;19.022;2023-05-29T01:31:54;13.40;70.90
27004;DHT22;14546;47.590;19.022;2023-05-29T01:34:21;13.40;71.30
27004;DHT22;14546;47.590;19.022;2023-05-29T01:36:47;13.40;71.50
27004;DHT22;14546;47.590;19.022;2023-05-29T01:39:13;13.30;71.70
27004;DHT22;14546;47.590;19.022;2023-05-29T01:41:39;13.30;71.90
27004;DHT22;14546;47.590;19.022;2023-05-29T01:44:07;13.30;71.90
27004;DHT22;14546;47.590;19.022;2023-05-29T01:46:38;13.30;72.10
27004;DHT22;14546;47.590;19.022;2023-05-29T01:49:04;13.30;72.30
27004;DHT22;14546;47.590;19.022;2023-05-29T01:51:30;13.30;72.40
27004;DHT22;14546;47.590;19.022;2023-05-29T01:53:57;13.20;72.40
27004;DHT22;14546;47.590;19.022;2023-05-29T01:56:25;13.20;72.50
27004;DHT22;14546;47.590;19.022;2023-05-29T01:58:53;13.20;72.50
27004;DHT22;14546;47.590;19.022;2023-05-29T02:01:21;13.20;72.60
27004;DHT22;14546;47.590;19.022;2023-05-29T02:03:46;13.20;72.70
27004;DHT22;14546;47.590;19.022;2023-05-29T02:06:12;13.10;72.70
27004;DHT22;14546;47.590;19.022;2023-05-29T02:08:38;13.10;73.00
27004;DHT22;14546;47.590;19.022;2023-05-29T02:11:03;13.10;73.10
27004;DHT22;14546;47.590;19.022;2023-05-29T02:13:29;13.10;73.10
27004;DHT22;14546;47.590;19.022;2023-05-29T02:15:55;13.00;73.10
27004;DHT22;14546;47.590;19.022;2023-05-29T02:18:21;13.00;73.30
27004;DHT22;14546;47.590;19.022;2023-05-29T02:20:46;13.00;73.40
27004;DHT22;14546;47.590;19.022;2023-05-29T02:23:12;12.90;73.40
27004;DHT22;14546;47.590;19.022;2023-05-29T02:25:38;12.90;73.60
27004;DHT22;14546;47.590;19.022;2023-05-29T02:28:04;12.90;73.80
27004;DHT22;14546;47.590;19.022;2023-05-29T02:30:30;12.80;73.90
27004;DHT22;14546;47.590;19.022;2023-05-29T02:32:56;12.80;74.10
27004;DHT22;14546;47.590;19.022;2023-05-29T02:35:22;12.80;74.20
27004;DHT22;14546;47.590;19.022;2023-05-29T02:37:52;12.80;74.40
27004;DHT22;14546;47.590;19.022;2023-05-29T02:40:19;12.70;74.40
27004;DHT22;14546;47.590;19.022;2023-05-29T02:42:45;12.70;74.50
27004;DHT22;14546;47.590;19.022;2023-05-29T02:45:12;12.70;74.60
27004;DHT22;14546;47.590;19.022;2023-05-29T02:47:37;12.70;74.70
27004;DHT22;14546;47.590;19.022;2023-05-29T02:50:03;12.60;74.70
27004;DHT22;14546;47.590;19.022;2023-05-29T02:52:31;12.60;74.80
27004;DHT22;14546;47.590;19.022;2023-05-29T02:54:56;12.60;74.90
27004;DHT22;14546;47.590;19.022;2023-05-29T02:57:24;12.60;75.70
27004;DHT22;14546;47.590;19.022;2023-05-29T02:59:50;12.60;75.00
27004;DHT22;14546;47.590;19.022;2023-05-29T03:02:19;12.50;75.00
27004;DHT22;14546;47.590;19.022;2023-05-29T03:04:45;12.50;75.00
27004;DHT22;14546;47.590;19.022;2023-05-29T03:07:11;12.50;75.20
27004;DHT22;14546;47.590;19.022;2023-05-29T03:09:38;12.50;75.20
27004;DHT22;14546;47.590;19.022;2023-05-29T03:12:04;12.50;75.30
27004;DHT22;14546;47.590;19.022;2023-05-29T03:14:30;12.50;75.40
27004;DHT22;14546;47.590;19.022;2023-05-29T03:17:05;12.50;75.40
27004;DHT22;14546;47.590;19.022;2023-05-29T03:19:31;12.60;75.50
27004;DHT22;14546;47.590;19.022;2023-05-29T03:21:57;12.60;75.60
27004;DHT22;14546;47.590;19.022;2023-05-29T03:24:22;12.60;75.70
27004;DHT22;14546;47.590;19.022;2023-05-29T03:26:52;12.60;75.80
27004;DHT22;14546;47.590;19.022;2023-05-29T03:29:18;12.60;76.00
27004;DHT22;14546;47.590;19.022;2023-05-29T03:31:44;12.60;76.00
27004;DHT22;14546;47.590;19.022;2023-05-29T03:34:10;12.60;76.10
27004;DHT22;14546;47.590;19.022;2023-05-29T03:36:35;12.60;76.20
27004;DHT22;14546;47.590;19.022;2023-05-29T03:39:04;12.60;76.40
27004;DHT22;14546;47.590;19.022;2023-05-29T03:41:29;12.70;76.50
27004;DHT22;14546;47.590;19.022;2023-05-29T03:43:55;12.70;76.60
27004;DHT22;14546;47.590;19.022;2023-05-29T03:46:20;12.70;76.70
27004;DHT22;14546;47.590;19.022;2023-05-29T03:48:46;12.70;76.90
27004;DHT22;14546;47.590;19.022;2023-05-29T03:51:12;12.70;77.00
27004;DHT22;14546;47.590;19.022;2023-05-29T03:53:37;12.80;77.30
27004;DHT22;14546;47.590;19.022;2023-05-29T03:56:03;12.80;77.50
27004;DHT22;14546;47.590;19.022;2023-05-29T03:58:29;12.80;77.80
27004;DHT22;14546;47.590;19.022;2023-05-29T04:00:55;12.90;78.10
27004;DHT22;14546;47.590;19.022;2023-05-29T04:03:20;12.90;78.40
27004;DHT22;14546;47.590;19.022;2023-05-29T04:05:47;13.00;78.80
27004;DHT22;14546;47.590;19.022;2023-05-29T04:08:13;13.10;79.20
27004;DHT22;14546;47.590;19.022;2023-05-29T04:10:39;13.20;79.50
27004;DHT22;14546;47.590;19.022;2023-05-29T04:13:04;13.20;79.50
27004;DHT22;14546;47.590;19.022;2023-05-29T04:15:31;13.30;79.60
27004;DHT22;14546;47.590;19.022;2023-05-29T04:17:58;13.30;79.50
27004;DHT22;14546;47.590;19.022;2023-05-29T04:20:24;13.40;79.50
27004;DHT22;14546;47.590;19.022;2023-05-29T04:22:51;13.40;80.20
27004;DHT22;14546;47.590;19.022;2023-05-29T04:25:16;13.50;79.50
27004;DHT22;14546;47.590;19.022;2023-05-29T04:27:43;13.60;79.50
27004;DHT22;14546;47.590;19.022;2023-05-29T04:30:14;13.60;79.40
27004;DHT22;14546;47.590;19.022;2023-05-29T04:32:40;13.70;79.40
27004;DHT22;14546;47.590;19.022;2023-05-29T04:35:06;13.70;79.40
27004;DHT22;14546;47.590;19.022;2023-05-29T04:37:32;13.80;79.50
27004;DHT22;14546;47.590;19.022;2023-05-29T04:40:07;13.90;79.70
27004;DHT22;14546;47.590;19.022;2023-05-29T04:42:39;13.90;79.80
27004;DHT22;14546;47.590;19.022;2023-05-29T04:45:07;14.00;79.70
27004;DHT22;14546;47.590;19.022;2023-05-29T04:47:36;14.10;79.80
27004;DHT22;14546;47.590;19.022;2023-05-29T04:50:12;14.20;80.00
27004;DHT22;14546;47.590;19.022;2023-05-29T04:52:37;14.30;80.20
27004;DHT22;14546;47.590;19.022;2023-05-29T04:55:04;14.40;80.40
27004;DHT22;14546;47.590;19.022;2023-05-29T04:57:30;14.50;80.50
27004;DHT22;14546;47.590;19.022;2023-05-29T04:59:56;14.50;80.60
27004;DHT22;14546;47.590;19.022;2023-05-29T05:02:22;14.60;80.70
27004;DHT22;14546;47.590;19.022;2023-05-29T05:04:47;14.70;80.90
27004;DHT22;14546;47.590;19.022;2023-05-29T05:07:13;14.80;81.10
27004;DHT22;14546;47.590;19.022;2023-05-29T05:09:41;14.90;81.30
27004;DHT22;14546;47.590;19.022;2023-05-29T05:12:07;15.10;81.30
27004;DHT22;14546;47.590;19.022;2023-05-29T05:14:33;15.10;81.20
27004;DHT22;14546;47.590;19.022;2023-05-29T05:16:58;15.30;80.90
27004;DHT22;14546;47.590;19.022;2023-05-29T05:19:24;15.30;80.50
27004;DHT22;14546;47.590;19.022;2023-05-29T05:21:50;15.40;80.40
27004;DHT22;14546;47.590;19.022;2023-05-29T05:24:15;15.50;80.20
27004;DHT22;14546;47.590;19.022;2023-05-29T05:26:41;15.60;79.90
27004;DHT22;14546;47.590;19.022;2023-05-29T05:29:07;15.70;80.50
27004;DHT22;14546;47.590;19.022;2023-05-29T05:31:32;15.80;79.50
27004;DHT22;14546;47.590;19.022;2023-05-29T05:33:58;15.90;79.10
27004;DHT22;14546;47.590;19.022;2023-05-29T05:36:24;16.00;78.50
27004;DHT22;14546;47.590;19.022;2023-05-29T05:38:49;16.10;77.90
27004;DHT22;14546;47.590;19.022;2023-05-29T05:41:15;16.10;77.40
27004;DHT22;14546;47.590;19.022;2023-05-29T05:43:41;16.20;77.00
27004;DHT22;14546;47.590;19.022;2023-05-29T05:46:06;16.30;76.70
27004;DHT22;14546;47.590;19.022;2023-05-29T05:48:32;16.40;76.50
27004;DHT22;14546;47.590;19.022;2023-05-29T05:50:58;16.50;76.40
27004;DHT22;14546;47.590;19.022;2023-05-29T05:53:23;16.60;76.30
27004;DHT22;14546;47.590;19.022;2023-05-29T05:55:49;16.70;76.90
27004;DHT22;14546;47.590;19.022;2023-05-29T05:58:15;16.80;75.90
27004;DHT22;14546;47.590;19.022;2023-05-29T06:00:41;16.90;75.70
27004;DHT22;14546;47.590;19.022;2023-05-29T06:03:08;17.00;75.50
27004;DHT22;14546;47.590;19.022;2023-05-29T06:05:33;17.20;75.30
27004;DHT22;14546;47.590;19.022;2023-05-29T06:08:01;17.30;75.20
27004;DHT22;14546;47.590;19.022;2023-05-29T06:10:27;17.50;75.00
27004;DHT22;14546;47.590;19.022;2023-05-29T06:12:53;17.60;74.40
27004;DHT22;14546;47.590;19.022;2023-05-29T06:15:19;17.80;74.10
27004;DHT22;14546;47.590;19.022;2023-05-29T06:29:57;17.90;73.70
27004;DHT22;14546;47.590;19.022;2023-05-29T06:32:23;18.80;70.80
27004;DHT22;14546;47.590;19.022;2023-05-29T06:34:49;18.90;69.50
27004;DHT22;14546;47.590;19.022;2023-05-29T06:37:14;19.00;69.30
